createdAt,value
2023-03-18T00:01:26.989Z,20.42
2023-03-18T00:03:59.796Z,20.83
2023-03-18T00:09:06.183Z,18.90
2023-03-18T00:11:40.507Z,18.52
2023-03-18T00:14:13.545Z,17.80
2023-03-18T00:16:46.281Z,13.88
2023-03-18T00:19:18.947Z,17.33
2023-03-18T00:21:52.316Z,18.33
2023-03-18T00:24:25.083Z,19.15
2023-03-18T00:26:59.132Z,18.02
2023-03-18T00:29:31.889Z,15.30
2023-03-18T00:34:37.464Z,22.83
2023-03-18T00:37:10.442Z,21.83
2023-03-18T00:42:18.406Z,20.83
2023-03-18T00:44:51.075Z,17.60
2023-03-18T00:47:26.031Z,16.42
2023-03-18T00:49:58.941Z,14.73
2023-03-18T00:55:06.848Z,17.92
2023-03-18T00:57:41.900Z,15.00
2023-03-18T01:00:16.909Z,13.93
2023-03-18T01:02:49.859Z,15.05
2023-03-18T01:05:25.925Z,16.20
2023-03-18T01:07:58.821Z,21.42
2023-03-18T01:13:05.919Z,15.70
2023-03-18T01:15:38.972Z,14.07
2023-03-18T01:18:12.177Z,13.90
2023-03-18T01:20:45.645Z,13.85
2023-03-18T01:23:19.873Z,15.90
2023-03-18T01:25:52.884Z,16.13
2023-03-18T01:28:28.817Z,15.02
2023-03-18T01:31:01.929Z,12.73
2023-03-18T01:33:35.656Z,15.27
2023-03-18T01:36:09.470Z,17.15
2023-03-18T01:38:42.340Z,16.00
2023-03-18T01:41:18.793Z,12.18
2023-03-18T01:43:54.780Z,15.43
2023-03-18T01:46:37.646Z,13.55
2023-03-18T01:49:14.795Z,13.90
2023-03-18T01:51:53.704Z,14.88
2023-03-18T01:54:29.536Z,15.95
2023-03-18T01:57:03.630Z,14.57
2023-03-18T01:59:42.881Z,17.08
2023-03-18T02:02:17.387Z,21.50
2023-03-18T02:04:53.695Z,14.65
2023-03-18T02:07:29.716Z,13.80
2023-03-18T02:10:06.004Z,14.10
2023-03-18T02:12:44.818Z,19.40
2023-03-18T02:15:24.720Z,19.40
2023-03-18T02:18:03.514Z,17.30
2023-03-18T02:20:46.966Z,16.85
2023-03-18T02:23:33.233Z,16.95
2023-03-18T02:26:14.650Z,14.23
2023-03-18T02:28:51.839Z,17.75
2023-03-18T02:31:24.917Z,18.40
2023-03-18T02:33:59.866Z,16.38
2023-03-18T02:36:34.537Z,17.20
2023-03-18T02:39:15.619Z,19.30
2023-03-18T02:41:48.547Z,20.25
2023-03-18T02:44:23.433Z,20.45
2023-03-18T02:47:22.768Z,17.10
2023-03-18T02:49:55.820Z,26.88
2023-03-18T02:52:28.607Z,20.20
2023-03-18T02:55:01.725Z,20.98
2023-03-18T02:57:35.425Z,22.05
2023-03-18T03:00:13.557Z,19.63
2023-03-18T03:02:46.406Z,19.73
2023-03-18T03:07:51.945Z,18.95
2023-03-18T03:10:25.779Z,17.92
2023-03-18T03:15:33.858Z,16.02
2023-03-18T03:18:08.631Z,20.65
2023-03-18T03:20:42.647Z,19.95
2023-03-18T03:25:50.348Z,17.27
2023-03-18T03:28:23.028Z,18.92
2023-03-18T03:30:59.158Z,18.88
2023-03-18T03:33:31.864Z,16.83
2023-03-18T03:36:05.195Z,22.35
2023-03-18T03:38:38.582Z,16.20
2023-03-18T03:41:11.724Z,19.77
2023-03-18T03:43:44.955Z,20.60
2023-03-18T03:46:19.088Z,18.60
2023-03-18T03:48:51.984Z,18.95
2023-03-18T03:51:24.746Z,15.57
2023-03-18T03:53:57.552Z,19.45
2023-03-18T03:56:31.457Z,17.85
2023-03-18T03:59:04.819Z,19.95
2023-03-18T04:01:58.808Z,17.88
2023-03-18T04:04:31.886Z,18.98
2023-03-18T04:07:05.257Z,13.82
2023-03-18T04:09:38.138Z,17.67
2023-03-18T04:12:14.272Z,17.05
2023-03-18T04:14:50.767Z,18.15
2023-03-18T04:17:25.973Z,16.65
2023-03-18T04:19:58.756Z,19.73
2023-03-18T04:22:36.240Z,16.08
2023-03-18T04:25:11.988Z,18.83
2023-03-18T04:27:46.366Z,17.25
2023-03-18T04:30:20.640Z,17.27
2023-03-18T04:33:04.546Z,18.52
2023-03-18T04:35:38.234Z,17.38
2023-03-18T04:38:11.296Z,17.83
2023-03-18T04:40:45.556Z,15.07
2023-03-18T04:43:18.385Z,16.73
2023-03-18T04:45:53.578Z,16.95
2023-03-18T04:48:28.510Z,16.85
2023-03-18T04:51:03.512Z,15.98
2023-03-18T04:53:37.742Z,15.30
2023-03-18T04:56:10.887Z,15.13
2023-03-18T04:58:50.831Z,17.50
2023-03-18T05:01:28.331Z,16.17
2023-03-18T05:04:02.860Z,14.55
2023-03-18T05:06:44.655Z,15.82
2023-03-18T05:09:19.802Z,15.43
2023-03-18T05:11:53.115Z,14.55
2023-03-18T05:14:31.331Z,16.70
2023-03-18T05:17:05.531Z,15.00
2023-03-18T05:19:43.884Z,17.50
2023-03-18T05:22:24.909Z,12.52
2023-03-18T05:25:04.849Z,16.65
2023-03-18T05:27:38.486Z,16.95
2023-03-18T05:30:17.469Z,16.73
2023-03-18T05:32:55.002Z,17.10
2023-03-18T05:35:41.672Z,16.15
2023-03-18T05:38:14.850Z,15.52
2023-03-18T05:40:47.702Z,14.02
2023-03-18T05:43:28.388Z,15.05
2023-03-18T05:46:04.315Z,15.73
2023-03-18T05:48:56.069Z,12.67
2023-03-18T05:51:34.138Z,13.70
2023-03-18T05:54:09.248Z,18.08
2023-03-18T05:56:47.299Z,15.82
2023-03-18T05:59:22.039Z,16.08
2023-03-18T06:02:00.489Z,14.02
2023-03-18T06:04:33.383Z,16.25
2023-03-18T06:07:07.695Z,14.05
2023-03-18T06:09:40.493Z,14.90
2023-03-18T06:12:13.226Z,15.65
2023-03-18T06:14:46.538Z,14.93
2023-03-18T06:17:22.357Z,16.85
2023-03-18T06:19:56.926Z,15.13
2023-03-18T06:22:32.532Z,13.73
2023-03-18T06:25:08.070Z,15.13
2023-03-18T06:27:43.842Z,18.55
2023-03-18T06:30:18.700Z,18.42
2023-03-18T06:32:53.325Z,20.70
2023-03-18T06:35:28.114Z,19.65
2023-03-18T06:38:02.735Z,18.05
2023-03-18T06:40:37.729Z,17.65
2023-03-18T06:43:12.418Z,21.85
2023-03-18T06:45:49.062Z,19.77
2023-03-18T06:48:21.931Z,19.08
2023-03-18T06:53:33.667Z,16.98
2023-03-18T06:56:07.844Z,20.77
2023-03-18T06:58:51.502Z,17.73
2023-03-18T07:01:24.355Z,18.10
2023-03-18T07:04:00.718Z,20.23
2023-03-18T07:06:34.741Z,21.95
2023-03-18T07:09:11.093Z,22.90
2023-03-18T07:11:44.238Z,21.67
2023-03-18T07:14:20.927Z,21.83
2023-03-18T07:16:53.746Z,25.73
2023-03-18T07:19:26.542Z,20.65
2023-03-18T07:21:59.378Z,23.13
2023-03-18T07:27:06.819Z,24.40
2023-03-18T07:29:39.732Z,22.25
2023-03-18T07:32:12.561Z,22.65
2023-03-18T07:34:47.992Z,23.67
2023-03-18T07:37:20.923Z,23.00
2023-03-18T07:39:55.158Z,23.85
2023-03-18T07:42:28.317Z,23.48
2023-03-18T07:45:03.072Z,27.45
2023-03-18T07:47:36.233Z,23.02
2023-03-18T07:50:10.383Z,24.65
2023-03-18T07:52:44.654Z,29.35
2023-03-18T07:55:19.827Z,24.02
2023-03-18T07:57:52.710Z,24.88
2023-03-18T08:02:58.466Z,23.88
2023-03-18T08:05:31.923Z,23.83
2023-03-18T08:08:05.377Z,29.27
2023-03-18T08:10:39.480Z,26.38
2023-03-18T08:13:12.973Z,30.08
2023-03-18T08:15:45.697Z,29.17
2023-03-18T08:18:18.567Z,32.03
2023-03-18T08:23:25.245Z,30.85
2023-03-18T08:25:59.743Z,27.70
2023-03-18T08:28:32.553Z,31.92
2023-03-18T08:31:05.990Z,34.55
2023-03-18T08:33:38.686Z,33.08
2023-03-18T08:36:12.141Z,31.35
2023-03-18T08:38:47.893Z,30.33
2023-03-18T08:41:27.423Z,33.22
2023-03-18T08:44:00.191Z,30.00
2023-03-18T08:46:33.405Z,35.17
2023-03-18T08:49:07.016Z,28.77
2023-03-18T08:51:39.956Z,33.00
2023-03-18T08:56:57.143Z,32.90
2023-03-18T08:59:31.095Z,34.05
2023-03-18T09:02:05.100Z,33.38
2023-03-18T09:04:38.828Z,28.80
2023-03-18T09:07:13.512Z,30.70
2023-03-18T09:09:46.340Z,27.17
2023-03-18T09:12:20.465Z,36.05
2023-03-18T09:14:53.635Z,27.75
2023-03-18T09:17:40.350Z,28.85
2023-03-18T09:20:19.352Z,28.05
2023-03-18T09:25:25.947Z,32.30
2023-03-18T09:28:01.267Z,34.13
2023-03-18T09:30:34.097Z,33.58
2023-03-18T09:33:07.783Z,32.03
2023-03-18T09:35:41.142Z,30.05
2023-03-18T09:38:16.804Z,34.55
2023-03-18T09:41:02.417Z,37.00
2023-03-18T09:43:54.633Z,30.73
2023-03-18T09:46:36.932Z,34.92
2023-03-18T09:49:21.710Z,31.85
2023-03-18T09:52:02.769Z,33.38
2023-03-18T09:54:41.294Z,29.65
2023-03-18T09:57:18.768Z,31.60
2023-03-18T09:59:55.894Z,30.73
2023-03-18T10:02:35.005Z,29.67
2023-03-18T10:05:13.645Z,34.45
2023-03-18T10:07:51.623Z,32.75
2023-03-18T10:10:29.276Z,30.23
2023-03-18T10:13:06.959Z,30.73
2023-03-18T10:15:45.498Z,29.05
2023-03-18T10:18:24.916Z,27.77
2023-03-18T10:21:11.409Z,29.20
2023-03-18T10:23:52.461Z,30.02
2023-03-18T10:26:32.187Z,27.60
2023-03-18T10:29:15.499Z,26.52
2023-03-18T10:32:04.026Z,28.85
2023-03-18T10:34:42.592Z,24.83
2023-03-18T10:37:24.785Z,27.92
2023-03-18T10:39:58.900Z,27.88
2023-03-18T10:42:33.997Z,24.17
2023-03-18T10:45:17.190Z,28.73
2023-03-18T10:50:33.596Z,26.95
2023-03-18T10:53:17.875Z,25.48
2023-03-18T10:55:57.682Z,24.25
2023-03-18T10:58:30.474Z,26.05
2023-03-18T11:01:04.329Z,27.77
2023-03-18T11:03:43.473Z,25.38
2023-03-18T11:06:20.841Z,23.67
2023-03-18T11:09:03.337Z,23.88
2023-03-18T11:11:36.822Z,22.38
2023-03-18T11:14:17.104Z,23.85
2023-03-18T11:16:57.605Z,22.35
2023-03-18T11:19:33.400Z,20.88
2023-03-18T11:22:20.228Z,24.65
2023-03-18T11:25:06.206Z,19.45
2023-03-18T11:27:40.776Z,20.75
2023-03-18T11:30:32.744Z,22.27
2023-03-18T11:33:14.078Z,19.35
2023-03-18T11:35:53.284Z,19.95
2023-03-18T11:38:28.889Z,21.35
2023-03-18T11:41:08.576Z,19.80
2023-03-18T11:43:56.443Z,20.20
2023-03-18T11:46:33.518Z,17.00
2023-03-18T11:49:07.363Z,18.77
2023-03-18T11:51:46.843Z,16.55
2023-03-18T11:54:44.263Z,18.88
2023-03-18T11:57:23.495Z,19.45
2023-03-18T12:00:07.783Z,20.83
2023-03-18T12:02:57.940Z,17.58
2023-03-18T12:05:49.693Z,20.13
2023-03-18T12:08:33.418Z,16.70
2023-03-18T12:11:12.945Z,16.67
2023-03-18T12:13:56.996Z,17.35
2023-03-18T12:16:45.199Z,17.23
2023-03-18T12:19:39.882Z,21.83
2023-03-18T12:22:30.569Z,15.45
2023-03-18T12:25:20.875Z,17.13
2023-03-18T12:28:01.810Z,21.58
2023-03-18T12:31:02.518Z,18.08
2023-03-18T12:33:50.776Z,15.57
2023-03-18T12:36:33.170Z,13.27
2023-03-18T12:39:29.904Z,11.60
2023-03-18T12:42:12.046Z,12.15
2023-03-18T12:44:54.666Z,13.70
2023-03-18T12:47:36.894Z,13.18
2023-03-18T12:50:17.240Z,12.98
2023-03-18T12:52:54.468Z,10.23
2023-03-18T12:55:30.025Z,13.95
2023-03-18T12:58:10.413Z,9.93
2023-03-18T13:00:50.133Z,12.35
2023-03-18T13:03:32.474Z,8.80
2023-03-18T13:06:11.797Z,8.10
2023-03-18T13:08:56.324Z,8.48
2023-03-18T13:11:49.303Z,10.15
2023-03-18T13:14:29.797Z,10.45
2023-03-18T13:17:04.587Z,5.78
2023-03-18T13:19:41.327Z,9.27
2023-03-18T13:22:37.601Z,6.45
2023-03-18T13:25:19.621Z,9.55
2023-03-18T13:28:05.306Z,8.88
2023-03-18T13:30:54.360Z,9.57
2023-03-18T13:33:52.019Z,9.25
2023-03-18T13:36:44.496Z,12.80
2023-03-18T13:39:36.083Z,9.37
2023-03-18T13:42:23.086Z,11.05
2023-03-18T13:45:02.745Z,8.15
2023-03-18T13:47:38.988Z,6.63
2023-03-18T13:50:31.098Z,6.85
2023-03-18T13:53:05.491Z,5.93
2023-03-18T13:55:47.575Z,9.95
2023-03-18T13:58:26.070Z,9.93
2023-03-18T14:01:27.048Z,5.72
2023-03-18T14:04:31.295Z,8.15
2023-03-18T14:07:16.924Z,4.90
2023-03-18T14:10:02.504Z,6.47
2023-03-18T14:12:42.801Z,5.45
2023-03-18T14:15:39.962Z,5.13
2023-03-18T14:18:28.611Z,5.68
2023-03-18T14:21:04.277Z,6.07
2023-03-18T14:23:40.292Z,6.45
2023-03-18T14:26:22.127Z,5.43
2023-03-18T14:28:57.519Z,7.07
2023-03-18T14:31:51.445Z,9.20
2023-03-18T14:34:27.822Z,4.70
2023-03-18T14:37:30.255Z,6.70
2023-03-18T14:40:08.436Z,5.95
2023-03-18T14:42:56.629Z,3.92
2023-03-18T14:45:34.933Z,6.70
2023-03-18T14:48:18.330Z,8.38
2023-03-18T14:53:32.115Z,7.35
2023-03-18T14:56:06.024Z,7.50
2023-03-18T14:58:38.774Z,4.65
2023-03-18T15:01:16.234Z,5.45
2023-03-18T15:03:50.695Z,6.55
2023-03-18T15:06:26.650Z,10.93
2023-03-18T15:09:04.571Z,6.47
2023-03-18T15:11:40.559Z,6.72
2023-03-18T15:14:19.304Z,7.05
2023-03-18T15:16:54.539Z,6.40
2023-03-18T15:19:29.329Z,4.50
2023-03-18T15:22:04.541Z,8.02
2023-03-18T15:24:38.754Z,6.43
2023-03-18T15:27:17.909Z,7.60
2023-03-18T15:29:54.021Z,6.38
2023-03-18T15:32:28.894Z,5.82
2023-03-18T15:35:14.217Z,5.03
2023-03-18T15:37:48.279Z,6.15
2023-03-18T15:40:35.898Z,5.93
2023-03-18T15:43:20.416Z,4.75
2023-03-18T15:45:56.829Z,4.97
2023-03-18T15:48:34.891Z,8.43
2023-03-18T15:51:11.114Z,5.60
2023-03-18T15:53:47.804Z,5.97
2023-03-18T15:56:26.937Z,5.00
2023-03-18T15:59:06.849Z,4.50
2023-03-18T16:01:40.187Z,3.72
2023-03-18T16:04:16.729Z,7.15
2023-03-18T16:06:49.735Z,3.97
2023-03-18T16:11:59.879Z,6.47
2023-03-18T16:14:38.282Z,3.47
2023-03-18T16:17:12.470Z,3.60
2023-03-18T16:19:46.305Z,5.40
2023-03-18T16:22:19.203Z,7.78
2023-03-18T16:24:52.495Z,5.93
2023-03-18T16:27:31.958Z,4.57
2023-03-18T16:30:06.126Z,3.88
2023-03-18T16:32:39.217Z,4.72
2023-03-18T16:35:15.912Z,3.38
2023-03-18T16:37:50.304Z,5.82
2023-03-18T16:40:24.515Z,3.95
2023-03-18T16:42:58.843Z,4.32
2023-03-18T16:45:34.383Z,5.30
2023-03-18T16:48:08.685Z,4.15
2023-03-18T16:50:42.644Z,3.47
2023-03-18T16:53:20.337Z,6.20
2023-03-18T16:55:56.112Z,3.42
2023-03-18T16:58:33.577Z,3.75
2023-03-18T17:01:07.140Z,6.20
2023-03-18T17:03:40.042Z,3.35
2023-03-18T17:06:13.217Z,6.07
2023-03-18T17:08:45.887Z,4.82
2023-03-18T17:11:19.230Z,6.78
2023-03-18T17:13:53.728Z,5.10
2023-03-18T17:16:30.542Z,7.25
2023-03-18T17:19:03.467Z,3.85
2023-03-18T17:24:09.543Z,6.17
2023-03-18T17:26:44.657Z,5.05
2023-03-18T17:29:24.372Z,4.57
2023-03-18T17:31:57.620Z,4.95
2023-03-18T17:34:30.394Z,4.82
2023-03-18T17:37:03.920Z,6.10
2023-03-18T17:39:36.612Z,6.78
2023-03-18T17:42:26.075Z,6.10
2023-03-18T17:45:05.630Z,5.45
2023-03-18T17:47:38.637Z,4.65
2023-03-18T17:50:15.034Z,4.80
2023-03-18T17:52:52.675Z,5.72
2023-03-18T17:55:27.288Z,3.45
2023-03-18T17:57:59.998Z,6.78
2023-03-18T18:00:36.672Z,6.93
2023-03-18T18:03:20.615Z,5.43
2023-03-18T18:05:54.580Z,3.70
2023-03-18T18:08:30.044Z,6.55
2023-03-18T18:11:12.399Z,5.90
2023-03-18T18:13:45.596Z,6.93
2023-03-18T18:16:21.587Z,3.92
2023-03-18T18:18:54.460Z,9.95
2023-03-18T18:21:27.188Z,4.78
2023-03-18T18:24:00.029Z,8.38
2023-03-18T18:26:33.230Z,5.53
2023-03-18T18:29:14.108Z,6.05
2023-03-18T18:31:48.880Z,5.65
2023-03-18T18:34:22.515Z,5.45
2023-03-18T18:36:55.250Z,6.50
2023-03-18T18:39:28.059Z,7.80
2023-03-18T18:42:00.843Z,6.82
2023-03-18T18:44:33.821Z,6.72
2023-03-18T18:47:19.911Z,4.03
2023-03-18T18:49:53.734Z,5.18
2023-03-18T18:52:26.541Z,5.50
2023-03-18T18:55:00.289Z,4.95
2023-03-18T18:57:35.123Z,6.18
2023-03-18T19:00:17.466Z,5.95
2023-03-18T19:02:56.267Z,5.13
2023-03-18T19:05:29.378Z,5.07
2023-03-18T19:08:03.807Z,7.32
2023-03-18T19:10:36.741Z,7.63
2023-03-18T19:13:13.994Z,10.23
2023-03-18T19:15:48.586Z,6.00
2023-03-18T19:18:25.328Z,4.95
2023-03-18T19:20:58.521Z,8.68
2023-03-18T19:23:33.216Z,6.28
2023-03-18T19:26:07.390Z,5.38
2023-03-18T19:29:01.353Z,4.20
2023-03-18T19:31:35.505Z,4.72
2023-03-18T19:34:16.200Z,8.60
2023-03-18T19:36:52.988Z,6.05
2023-03-18T19:39:27.816Z,6.72
2023-03-18T19:42:00.581Z,5.40
2023-03-18T19:44:33.436Z,5.15
2023-03-18T19:47:06.300Z,6.78
2023-03-18T19:49:40.902Z,5.05
2023-03-18T19:52:19.587Z,6.15
2023-03-18T19:54:53.525Z,7.25
2023-03-18T19:57:30.307Z,7.25
2023-03-18T20:00:05.148Z,5.25
2023-03-18T20:02:38.616Z,7.95
2023-03-18T20:05:18.565Z,5.30
2023-03-18T20:07:51.367Z,6.75
2023-03-18T20:10:24.350Z,6.80
2023-03-18T20:12:57.317Z,6.13
2023-03-18T20:15:30.049Z,5.53
2023-03-18T20:18:02.891Z,5.07
2023-03-18T20:20:37.114Z,7.50
2023-03-18T20:23:14.732Z,10.25
2023-03-18T20:25:51.171Z,7.50
2023-03-18T20:28:25.847Z,8.07
2023-03-18T20:30:59.621Z,8.52
2023-03-18T20:33:33.462Z,7.63
2023-03-18T20:36:14.777Z,4.90
2023-03-18T20:38:49.916Z,4.85
2023-03-18T20:41:24.075Z,5.60
2023-03-18T20:43:56.760Z,5.68
2023-03-18T20:46:29.755Z,8.82
2023-03-18T20:49:02.596Z,7.88
2023-03-18T20:51:40.769Z,7.40
2023-03-18T20:54:18.815Z,7.28
2023-03-18T20:56:51.721Z,5.55
2023-03-18T20:59:25.118Z,5.00
2023-03-18T21:01:57.842Z,4.47
2023-03-18T21:04:31.005Z,4.30
2023-03-18T21:07:05.137Z,6.95
2023-03-18T21:09:39.507Z,5.43
2023-03-18T21:12:17.099Z,5.38
2023-03-18T21:14:51.129Z,6.20
2023-03-18T21:17:25.918Z,4.93
2023-03-18T21:20:10.979Z,7.75
2023-03-18T21:22:49.975Z,4.55
2023-03-18T21:25:24.429Z,5.90
2023-03-18T21:27:58.913Z,3.33
2023-03-18T21:30:31.671Z,7.50
2023-03-18T21:33:18.404Z,6.25
2023-03-18T21:35:52.534Z,6.53
2023-03-18T21:38:27.490Z,5.70
2023-03-18T21:41:02.207Z,7.93
2023-03-18T21:43:36.833Z,7.30
2023-03-18T21:46:14.193Z,6.43
2023-03-18T21:48:47.377Z,6.35
2023-03-18T21:51:37.492Z,7.95
2023-03-18T21:54:18.756Z,7.70
2023-03-18T21:56:51.482Z,5.28
2023-03-18T22:01:57.269Z,6.80
2023-03-18T22:07:02.939Z,7.70
2023-03-18T22:12:14.237Z,6.88
2023-03-18T22:14:47.014Z,9.25
2023-03-18T22:17:22.693Z,7.00
2023-03-18T22:19:56.804Z,7.40
2023-03-18T22:22:35.658Z,9.57
2023-03-18T22:25:26.131Z,6.72
2023-03-18T22:27:59.377Z,7.60
2023-03-18T22:30:34.184Z,9.68
2023-03-18T22:33:07.409Z,8.13
2023-03-18T22:35:40.360Z,5.50
2023-03-18T22:40:51.688Z,8.48
2023-03-18T22:43:30.885Z,7.15
2023-03-18T22:46:06.131Z,8.32
2023-03-18T22:48:41.374Z,6.10
2023-03-18T22:51:23.516Z,9.35
2023-03-18T22:53:56.622Z,6.25
2023-03-18T22:56:32.146Z,7.47
2023-03-18T22:59:04.858Z,6.97
2023-03-18T23:01:38.107Z,10.90
2023-03-18T23:04:12.198Z,8.27
2023-03-18T23:06:44.975Z,7.97
2023-03-18T23:11:51.903Z,6.07
2023-03-18T23:14:24.693Z,7.78
2023-03-18T23:16:57.465Z,7.05
2023-03-18T23:19:30.430Z,6.47
2023-03-18T23:24:35.676Z,8.20
2023-03-18T23:29:43.365Z,8.88
2023-03-18T23:32:18.031Z,7.15
2023-03-18T23:34:51.728Z,8.73
2023-03-18T23:37:24.456Z,7.60
2023-03-18T23:39:57.182Z,8.30
2023-03-18T23:42:31.256Z,10.63
2023-03-18T23:45:05.729Z,9.20
2023-03-18T23:47:38.473Z,8.20
2023-03-18T23:50:12.188Z,9.10
2023-03-18T23:52:44.943Z,10.93
2023-03-18T23:55:45.401Z,9.40
2023-03-18T23:58:12.062Z,9.55
